Terminal Aerodrome Forecast
Issued by NWS

Home | Current Version | Previous Version | Text Only | Print | Product List | Glossary On
Versions: 1 2 3 4 5 6 7 8 9 10 11 12 13 14 15 16
000
FTUS43 KICT 282325
TAFCNU
TAF
KCNU 282325Z 2900/2924 18010KT P6SM VCTS SCT040CB BKN100
      TEMPO 2901/2905 VRB15G35KT 5SM TSRA OVC030CB
     FM290800 VRB04KT P6SM VCSH BKN080
     FM291200 34008KT P6SM SCT025
      TEMPO 2915/2919 BKN025=

USA.gov is the U.S. government's official web portal to all federal, state and local government web resources and services.